메인 페이지
METAR-TAF:

METAR-TAF

공항 :

엘도라도 국제공항

보고타, 콜롬비아

위도: 04-43N, 경도: 074-09W, 고도: 2547m

현재 날씨관측

예보는 49분 전, 23:00시(UTC)에 발표되었습니다.
서북서4kt
온도 15°C
습도 82%
기압 1027 hPa
시정 10km 이상
고도 2000ft 상공 구름 보통
고도 20000ft 상공 구름 보통

METAR: SKBO 012300Z 30004KT 9999 SCT020 SCT200 15/12 A3034 NOSIG

시각: 18:49 (23:49 UTC)

예보

예보는 1 시간 49분 전, 22:00시(UTC)에 발표되었습니다.
예보 대상 시간: 02일 00시부터 02일 24시까지 (UTC)
북북동5kt
시정 10km 이상
고도 1700ft 상공 구름 보통
고도 9000ft 상공 구름 많음
확률 40%
02일 07시부터 02일 11시까지 (UTC)
시정: 4000m
고도 1000ft 상공 구름 많음
박무
전환 중
02일 14시부터 02일 16시까지 (UTC)
북서10kt
일시적
02일 17시부터 02일 19시까지 (UTC)
고도 1700ft 상공 구름 많음, 타워링 적운.
비, 이슬비

TAF: SKBO 012200Z 0200/0224 03005KT 9999 SCT017 BKN090 PROB40 0207/0211 4000 BR BKN010 BECMG 0214/0216 31010KT TEMPO 0217/0219 RADZ BKN017TCU TX19/0218Z TN10/0210Z

4,000개 이상의 공항 관측 자료 및 예보 (METAR 및 TAF 보고).

지도상에서 검색 가능한 기상관측소가 노란 점과 빨간 점으로 표시되어 있습니다.

기상관측소 명을 보려면 표시 위로 마우스를 이동하세요.

날씨 관측과 예보를 보려면 클릭하세요.

지도 변경 : 확대하려면 엑스 표시가 있는 녹색 버튼, 축소하려면 빼기 표시가 있는 녹색 버튼, 다음 페이지의 지도를 보려면 녹색 화살표를 클릭하세요.


METAR-TAF: